Time;durP1;ratioP1;P1;durP2;ratioP2;P2;SDS_P1;SDS_P2;PMS_P1;PMS_P2;Temp;Humidity;BMP_temperature;BMP_pressure;BME280_temperature;BME280_humidity;BME280_pressure;Samples;Min_cycle;Max_cycle;Signal;HPM_P1;HPM_P2
2022/12/12 00:02:17;;;;;;;;;24.33;24.00;;;;;2.03;69.29;100373.47;5109166;27;45059;-83
2022/12/12 00:04:43;;;;;;;;;33.75;25.50;;;;;2.25;69.04;100422.34;5115532;27;45083;-83
2022/12/12 00:07:08;;;;;;;;;32.00;30.00;;;;;2.06;68.89;100390.09;5122056;27;48960;-82
2022/12/12 00:09:33;;;;;;;;;33.67;31.00;;;;;2.24;69.39;100415.38;5107413;27;47724;-83
2022/12/12 00:11:59;;;;;;;;;29.67;27.33;;;;;2.29;69.54;100419.16;5109216;27;45549;-83
2022/12/12 00:14:24;;;;;;;;;32.33;27.00;;;;;2.10;69.23;100377.34;5122178;27;55662;-83
2022/12/12 00:16:49;;;;;;;;;31.75;25.25;;;;;2.23;69.18;100400.63;5106062;27;47351;-83
2022/12/12 00:19:15;;;;;;;;;27.50;24.25;;;;;2.27;69.62;100411.28;5111446;27;45263;-84
2022/12/12 00:21:40;;;;;;;;;18.67;18.00;;;;;2.41;68.99;100419.91;5116958;27;52914;-83
2022/12/12 00:24:05;;;;;;;;;25.33;21.33;;;;;2.13;69.23;100378.44;5108048;27;45260;-82
2022/12/12 00:26:33;;;;;;;;;18.75;15.75;;;;;2.44;69.33;100419.19;5126191;27;45980;-82
2022/12/12 00:28:59;;;;;;;;;27.50;24.25;;;;;2.45;69.04;100419.28;5127926;27;45349;-82
2022/12/12 00:31:25;;;;;;;;;30.75;25.50;;;;;2.46;68.96;100410.69;5128604;27;45068;-83
2022/12/12 00:33:50;;;;;;;;;24.25;20.00;;;;;2.37;69.02;100412.75;5124621;27;45254;-82
2022/12/12 00:36:21;;;;;;;;;25.00;22.33;;;;;2.15;69.19;100382.00;5089567;27;60854;-82
2022/12/12 00:38:47;;;;;;;;;29.50;25.50;;;;;2.21;69.00;100389.25;5126750;27;45461;-82
2022/12/12 00:41:13;;;;;;;;;16.75;14.00;;;;;2.14;69.10;100388.00;5132867;27;45266;-82
2022/12/12 00:43:39;;;;;;;;;26.75;23.25;;;;;2.25;69.38;100399.91;5131480;27;45068;-82
2022/12/12 00:46:04;;;;;;;;;26.75;23.00;;;;;2.20;69.16;100390.06;5132325;27;45153;-83
2022/12/12 00:48:30;;;;;;;;;21.25;19.50;;;;;2.12;69.41;100379.22;5132392;27;45015;-83
2022/12/12 00:50:57;;;;;;;;;32.75;28.25;;;;;2.27;69.00;100413.88;5132067;27;45151;-82
2022/12/12 00:53:23;;;;;;;;;28.25;26.75;;;;;2.43;69.37;100439.06;5132251;27;45342;-83
2022/12/12 00:55:57;;;;;;;;;23.00;22.75;;;;;2.47;69.49;100437.56;5131395;27;45805;-83
2022/12/12 00:58:24;;;;;;;;;27.00;26.25;;;;;2.48;69.07;100429.88;5131742;27;45068;-82
2022/12/12 01:00:50;;;;;;;;;31.75;25.25;;;;;2.51;69.18;100440.44;5131075;27;45390;-83
2022/12/12 01:03:16;;;;;;;;;28.25;21.50;;;;;2.22;69.30;100380.69;5132027;27;45286;-83
2022/12/12 01:05:41;;;;;;;;;26.75;21.75;;;;;2.55;68.88;100439.78;5131041;27;45440;-83
2022/12/12 01:08:06;;;;;;;;;25.67;23.67;;;;;2.25;69.47;100375.69;5131960;27;45027;-83
2022/12/12 01:10:32;;;;;;;;;25.00;21.00;;;;;2.44;68.87;100412.31;5112712;27;51912;-82
2022/12/12 01:12:57;;;;;;;;;18.75;18.50;;;;;2.41;69.27;100412.13;5131424;27;45225;-82
2022/12/12 01:15:22;;;;;;;;;23.00;21.00;;;;;2.52;68.84;100412.78;5111236;27;52503;-82
2022/12/12 01:17:48;;;;;;;;;25.25;22.75;;;;;2.55;68.95;100426.81;5110821;27;45028;-83
2022/12/12 01:20:16;;;;;;;;;24.33;24.00;;;;;2.56;68.93;100433.84;5111037;27;45060;-82
2022/12/12 01:22:42;;;;;;;;;26.25;22.00;;;;;2.48;69.04;100414.31;5110362;27;45083;-82
2022/12/12 01:25:09;;;;;;;;;21.67;21.67;;;;;2.47;69.27;100414.22;5123204;27;45574;-83
2022/12/12 01:27:34;;;;;;;;;23.50;21.00;;;;;2.34;69.10;100389.22;5119755;27;45660;-83
2022/12/12 01:30:01;;;;;;;;;25.67;23.67;;;;;2.58;68.93;100424.44;5131207;27;46496;-83
2022/12/12 01:32:27;;;;;;;;;23.00;20.50;;;;;2.60;69.13;100421.91;5118391;27;45141;-83
2022/12/12 01:34:53;;;;;;;;;24.50;20.25;;;;;2.64;69.15;100431.69;5115853;27;45303;-83
2022/12/12 01:37:18;;;;;;;;;21.25;19.00;;;;;2.63;68.93;100432.50;5112595;27;45067;-83
2022/12/12 01:39:44;;;;;;;;;21.25;18.25;;;;;2.63;68.75;100426.41;5121024;27;45079;-83
2022/12/12 01:42:16;;;;;;;;;14.75;13.00;;;;;2.64;68.68;100439.47;5110963;27;45134;-83
2022/12/12 01:44:47;;;;;;;;;19.75;17.50;;;;;2.39;68.65;100398.16;5110391;27;45367;-83
2022/12/12 01:47:16;;;;;;;;;18.00;15.75;;;;;2.63;68.55;100445.47;5114615;27;45189;-82
2022/12/12 01:49:51;;;;;;;;;19.50;17.50;;;;;2.49;68.83;100421.28;5130660;27;44977;-83
2022/12/12 01:52:21;;;;;;;;;21.25;20.50;;;;;2.60;68.52;100442.69;5118241;27;45021;-83
2022/12/12 01:54:52;;;;;;;;;18.75;16.00;;;;;2.49;68.61;100428.16;5110215;27;45729;-82
2022/12/12 01:57:25;;;;;;;;;17.75;14.50;;;;;2.63;68.64;100449.75;5110488;27;45282;-82
2022/12/12 01:59:50;;;;;;;;;17.00;14.00;;;;;2.47;68.76;100416.81;5110610;27;45496;-82
2022/12/12 02:02:16;;;;;;;;;17.50;16.75;;;;;2.66;68.50;100448.25;5110340;27;45201;-82
2022/12/12 02:04:42;;;;;;;;;19.75;16.75;;;;;2.45;68.43;100414.09;5109752;27;45278;-82
2022/12/12 02:07:07;;;;;;;;;17.75;17.50;;;;;2.42;68.41;100426.91;5110133;27;45550;-83
2022/12/12 02:09:34;;;;;;;;;18.00;15.00;;;;;2.50;68.44;100449.00;5109940;27;45072;-83
2022/12/12 02:12:00;;;;;;;;;19.50;16.00;;;;;2.25;68.68;100401.59;5090880;27;45029;-83
2022/12/12 02:14:29;;;;;;;;;18.25;17.00;;;;;2.38;68.77;100411.06;5110143;27;45138;-83
2022/12/12 02:17:00;;;;;;;;;14.00;12.00;;;;;2.56;68.35;100443.28;5109643;27;45024;-83
2022/12/12 02:19:41;;;;;;;;;16.00;15.75;;;;;2.54;68.72;100443.19;5110297;27;45118;-83
2022/12/12 02:22:34;;;;;;;;;17.00;14.50;;;;;2.24;68.60;100386.88;5110416;27;45251;-83
2022/12/12 02:25:34;;;;;;;;;7.75;1.25;;;;;2.32;68.62;100403.81;5109793;27;45888;-82
2022/12/12 02:28:21;;;;;;;;;17.00;15.00;;;;;2.54;68.66;100440.59;5109669;27;45310;-82
2022/12/12 02:31:08;;;;;;;;;17.50;17.50;;;;;2.55;68.58;100444.97;5109588;27;45122;-83
2022/12/12 02:33:42;;;;;;;;;16.25;13.50;;;;;2.16;68.26;100372.53;5092694;27;45123;-83
2022/12/12 02:36:19;;;;;;;;;16.75;14.50;;;;;2.27;68.45;100384.47;5130028;27;47459;-83
2022/12/12 02:38:54;;;;;;;;;17.50;15.50;;;;;2.59;68.42;100440.88;5111366;27;45475;-83
2022/12/12 02:41:29;;;;;;;;;18.50;17.00;;;;;2.33;68.49;100388.31;5130185;27;45028;-82
2022/12/12 02:44:31;;;;;;;;;18.75;17.25;;;;;2.56;68.84;100425.13;5111578;27;45253;-82
2022/12/12 02:47:03;;;;;;;;;16.75;15.00;;;;;2.67;68.46;100454.34;5129801;27;45560;-82
2022/12/12 02:49:37;;;;;;;;;14.50;12.00;;;;;2.69;68.53;100442.34;5129562;27;45269;-83
2022/12/12 02:52:04;;;;;;;;;19.25;19.00;;;;;2.70;68.29;100437.25;5111342;27;45144;-83
2022/12/12 02:54:30;;;;;;;;;18.25;15.00;;;;;2.63;67.99;100442.88;5111486;27;45226;-83
2022/12/12 02:56:58;;;;;;;;;19.25;18.00;;;;;2.61;68.51;100447.09;5129522;27;45380;-82
2022/12/12 02:59:36;;;;;;;;;14.50;14.00;;;;;2.41;68.63;100401.75;5129631;27;45077;-82
2022/12/12 03:02:16;;;;;;;;;20.00;17.00;;;;;2.64;68.37;100430.78;5129369;27;45143;-82
2022/12/12 03:07:56;;;;;;;;;17.00;16.75;;;;;2.63;67.98;100436.78;5129939;27;45585;-83
2022/12/12 03:10:41;;;;;;;;;17.00;14.50;;;;;2.56;68.09;100435.50;5130266;27;45253;-83
2022/12/12 03:13:25;;;;;;;;;16.00;14.75;;;;;2.48;68.10;100437.66;5111065;27;45453;-83
2022/12/12 03:16:08;;;;;;;;;24.00;21.25;;;;;2.46;68.11;100433.16;5129116;27;44982;-83
2022/12/12 03:18:47;;;;;;;;;18.25;15.75;;;;;2.43;68.19;100423.50;5128944;27;45435;-83
2022/12/12 03:21:34;;;;;;;;;23.00;19.75;;;;;2.17;68.04;100393.38;5129947;27;45141;-83
2022/12/12 03:24:07;;;;;;;;;12.50;11.25;;;;;2.34;68.44;100438.47;5129878;27;45345;-83
2022/12/12 03:26:43;;;;;;;;;25.25;20.50;;;;;2.15;68.59;100396.66;5129778;27;45040;-83
2022/12/12 03:29:14;;;;;;;;;20.50;17.25;;;;;2.36;68.55;100426.50;5113654;27;46072;-83
2022/12/12 03:31:44;;;;;;;;;13.00;11.75;;;;;2.31;68.62;100413.25;5108430;27;45090;-83
2022/12/12 03:34:24;;;;;;;;;16.00;16.00;;;;;2.39;68.69;100428.41;5115751;27;45058;-83
2022/12/12 03:37:02;;;;;;;;;14.00;14.00;;;;;2.30;68.34;100414.06;5129179;27;45296;-82
2022/12/12 03:39:37;;;;;;;;;18.00;17.50;;;;;2.41;68.23;100437.16;5129736;27;45167;-83
2022/12/12 03:42:25;;;;;;;;;16.25;15.50;;;;;2.17;68.53;100395.97;5129511;27;45404;-83
2022/12/12 03:45:04;;;;;;;;;18.75;14.50;;;;;2.46;68.56;100444.41;5129571;27;45109;-83
2022/12/12 03:47:38;;;;;;;;;13.50;13.00;;;;;2.49;68.44;100444.63;5127414;27;45018;-83
2022/12/12 03:50:15;;;;;;;;;13.50;13.50;;;;;2.31;68.72;100425.31;5108971;27;45826;-83
2022/12/12 03:53:01;;;;;;;;;16.25;14.25;;;;;2.50;68.39;100453.28;5126980;27;45149;-83
2022/12/12 03:55:43;;;;;;;;;11.75;11.00;;;;;2.38;67.98;100442.16;5109265;27;45157;-83
2022/12/12 03:58:15;;;;;;;;;12.00;11.50;;;;;2.18;67.92;100426.28;5109960;27;45127;-83
2022/12/12 04:00:44;;;;;;;;;16.50;14.25;;;;;2.24;68.34;100437.00;5111550;27;46681;-83
2022/12/12 04:03:18;;;;;;;;;19.00;17.50;;;;;2.36;68.28;100461.91;5119990;27;45395;-83
2022/12/12 04:06:28;;;;;;;;;19.00;17.75;;;;;2.37;68.45;100462.03;5125494;27;45050;-83
2022/12/12 04:15:11;;;;;;;;;19.25;14.00;;;;;2.39;68.40;100460.41;5110164;27;45319;-83
2022/12/12 04:17:58;;;;;;;;;15.75;15.75;;;;;2.42;68.60;100462.31;5112022;27;45159;-83
2022/12/12 04:23:30;;;;;;;;;14.75;14.25;;;;;2.48;68.60;100455.78;5132460;27;45053;-83
2022/12/12 04:28:58;;;;;;;;;17.75;16.00;;;;;2.35;68.21;100442.88;5132000;27;45141;-83
2022/12/12 04:31:28;;;;;;;;;12.00;11.50;;;;;2.37;68.50;100442.97;5113251;27;45104;-82
2022/12/12 04:33:59;;;;;;;;;17.25;15.00;;;;;2.36;68.37;100447.25;5127633;27;45519;-83
2022/12/12 04:36:27;;;;;;;;;11.25;11.25;;;;;2.45;68.02;100468.56;5111650;27;45377;-83
2022/12/12 04:38:52;;;;;;;;;14.75;14.50;;;;;2.40;68.15;100467.38;5111403;27;45185;-83
2022/12/12 04:41:21;;;;;;;;;18.33;17.33;;;;;2.11;68.02;100426.66;5111138;27;53907;-83
2022/12/12 04:43:49;;;;;;;;;17.25;16.50;;;;;2.33;68.40;100473.91;5111395;27;45999;-84
2022/12/12 04:46:20;;;;;;;;;15.00;11.75;;;;;2.10;68.18;100421.41;5111422;27;45313;-83
2022/12/12 04:48:51;;;;;;;;;21.25;15.50;;;;;2.44;68.48;100473.66;5111328;27;45044;-83
2022/12/12 04:51:24;;;;;;;;;22.75;16.25;;;;;2.16;68.20;100416.59;5111870;27;45088;-83
2022/12/12 04:53:57;;;;;;;;;12.50;12.50;;;;;2.44;67.97;100469.38;5111313;27;45190;-83
2022/12/12 04:56:28;;;;;;;;;18.25;14.75;;;;;2.36;68.48;100443.75;5110687;27;45016;-83
2022/12/12 04:58:54;;;;;;;;;16.25;14.25;;;;;2.53;68.65;100472.53;5092858;27;45218;-82
2022/12/12 05:01:37;;;;;;;;;21.00;18.00;;;;;2.43;68.29;100448.53;5092715;27;45037;-83
2022/12/12 05:04:08;;;;;;;;;16.75;14.50;;;;;2.59;68.30;100479.81;5111158;27;46165;-83
2022/12/12 05:06:48;;;;;;;;;18.00;17.00;;;;;2.42;68.51;100437.28;5126342;27;45029;-83
2022/12/12 05:09:16;;;;;;;;;19.75;15.25;;;;;1.99;67.91;100362.00;5124812;27;45142;-83
2022/12/12 05:11:42;;;;;;;;;18.25;16.75;;;;;2.43;67.99;100449.44;5125853;27;45092;-83
2022/12/12 05:14:09;;;;;;;;;17.75;17.75;;;;;2.40;68.21;100453.53;5112563;27;47154;-83
2022/12/12 05:16:41;;;;;;;;;21.00;19.25;;;;;2.19;68.30;100403.84;5110122;27;45727;-83
2022/12/12 05:19:06;;;;;;;;;27.75;22.00;;;;;2.42;68.55;100442.47;5111292;27;45174;-83
2022/12/12 05:21:32;;;;;;;;;21.00;14.00;;;;;2.51;68.71;100444.69;5110589;27;57830;-83
2022/12/12 05:23:57;;;;;;;;;19.00;16.67;;;;;2.54;68.56;100429.34;5110558;27;45620;-83
2022/12/12 05:26:27;;;;;;;;;17.67;15.67;;;;;2.74;68.37;100465.16;5111575;27;45180;-83
2022/12/12 05:28:53;;;;;;;;;18.00;14.50;;;;;2.74;67.97;100472.06;5119963;27;45147;-83
2022/12/12 05:31:19;;;;;;;;;11.75;11.75;;;;;2.70;68.19;100470.06;5110578;27;45217;-83
2022/12/12 05:33:44;;;;;;;;;21.75;16.50;;;;;2.55;67.97;100438.91;5113440;27;45721;-83
2022/12/12 05:36:10;;;;;;;;;16.75;15.75;;;;;2.58;68.31;100432.22;5131338;27;44938;-83
2022/12/12 05:38:36;;;;;;;;;15.00;14.75;;;;;2.53;68.16;100412.00;5131820;27;45185;-83
2022/12/12 05:41:02;;;;;;;;;17.25;14.75;;;;;2.62;67.82;100425.53;5131493;27;45178;-83
2022/12/12 05:43:27;;;;;;;;;16.50;14.00;;;;;2.80;68.12;100459.44;5131647;27;45952;-83
2022/12/12 05:45:52;;;;;;;;;8.33;8.00;;;;;2.73;67.91;100450.41;5130798;27;45247;-83
2022/12/12 05:48:18;;;;;;;;;9.00;8.00;;;;;2.44;67.87;100414.00;5131771;27;45500;-83
2022/12/12 05:50:43;;;;;;;;;19.00;17.50;;;;;2.70;67.94;100475.25;5130583;27;45098;-83
2022/12/12 05:53:10;;;;;;;;;28.25;22.75;;;;;2.46;68.05;100439.22;5131184;27;45387;-83
2022/12/12 05:55:35;;;;;;;;;20.25;18.00;;;;;2.70;68.27;100470.06;5111925;27;45450;-83
2022/12/12 05:58:01;;;;;;;;;18.50;15.75;;;;;2.76;68.31;100475.66;5130633;27;45094;-83
2022/12/12 06:00:26;;;;;;;;;20.50;19.00;;;;;2.71;68.36;100466.69;5111323;27;45365;-83
2022/12/12 06:02:51;;;;;;;;;21.75;19.00;;;;;2.77;68.11;100474.84;5130185;27;45590;-83
2022/12/12 06:05:16;;;;;;;;;18.00;15.33;;;;;2.57;68.29;100434.72;5131173;27;45365;-83
2022/12/12 06:07:42;;;;;;;;;18.33;15.00;;;;;2.80;68.32;100460.34;5131166;27;45195;-83
2022/12/12 06:10:07;;;;;;;;;16.00;13.67;;;;;2.50;68.30;100407.50;5125035;27;61063;-84
2022/12/12 06:12:32;;;;;;;;;18.00;15.75;;;;;2.68;68.29;100432.78;5112455;27;45800;-83
2022/12/12 06:14:58;;;;;;;;;20.33;18.33;;;;;2.82;68.21;100463.06;5129980;27;62084;-83
2022/12/12 06:17:23;;;;;;;;;1.33;0.00;;;;;2.60;68.23;100434.88;5118522;27;50669;-83
2022/12/12 06:19:49;;;;;;;;;24.00;18.33;;;;;2.88;67.83;100475.50;5128621;27;49777;-83
2022/12/12 06:22:14;;;;;;;;;21.25;17.00;;;;;2.52;68.03;100423.19;5125293;27;45763;-83
2022/12/12 06:24:39;;;;;;;;;18.33;18.33;;;;;2.87;67.85;100484.09;5109883;27;45365;-84
2022/12/12 06:27:05;;;;;;;;;23.25;18.00;;;;;2.84;67.88;100475.31;5109936;27;45004;-83
2022/12/12 06:29:30;;;;;;;;;19.67;18.00;;;;;2.79;67.62;100475.84;5109904;27;44788;-83
2022/12/12 06:31:55;;;;;;;;;19.33;15.67;;;;;2.78;67.60;100492.22;5119156;27;45562;-83
2022/12/12 06:34:21;;;;;;;;;17.00;16.25;;;;;2.75;67.72;100494.59;5104751;27;45527;-83
2022/12/12 06:36:46;;;;;;;;;18.33;18.00;;;;;2.73;68.30;100486.75;5088989;27;57381;-83
2022/12/12 06:39:11;;;;;;;;;21.00;19.00;;;;;2.43;67.84;100428.69;5070786;27;59968;-83
2022/12/12 06:41:37;;;;;;;;;21.00;18.33;;;;;2.61;68.14;100464.31;5090045;27;46355;-83
2022/12/12 06:44:03;;;;;;;;;18.75;16.50;;;;;2.45;68.02;100447.81;5090434;27;45446;-83
2022/12/12 06:46:29;;;;;;;;;20.25;17.50;;;;;2.50;68.18;100456.78;5090304;27;45413;-83
2022/12/12 06:48:55;;;;;;;;;21.50;18.25;;;;;2.64;67.88;100478.38;5121803;27;45418;-83
2022/12/12 06:51:24;;;;;;;;;24.25;20.50;;;;;2.65;68.41;100476.69;5128350;27;45807;-83
2022/12/12 06:53:50;;;;;;;;;18.50;18.25;;;;;2.58;68.28;100452.97;5128661;27;45605;-83
2022/12/12 06:56:18;;;;;;;;;21.50;19.25;;;;;2.78;68.15;100466.25;5092965;27;44985;-82
2022/12/12 06:58:44;;;;;;;;;20.75;20.25;;;;;2.74;68.22;100449.59;5117502;27;45246;-83
2022/12/12 07:01:12;;;;;;;;;24.75;20.25;;;;;2.62;67.92;100420.34;5109199;27;45694;-83
2022/12/12 07:03:38;;;;;;;;;28.00;21.25;;;;;2.65;68.08;100436.06;5121549;27;45084;-83
2022/12/12 07:06:04;;;;;;;;;21.75;19.75;;;;;2.03;67.61;100340.66;5129902;27;45186;-83
2022/12/12 07:08:29;;;;;;;;;31.50;27.75;;;;;2.31;68.26;100381.22;5118025;27;45251;-82
2022/12/12 07:10:56;;;;;;;;;26.75;24.25;;;;;1.83;67.77;100303.97;5110160;27;45942;-83
2022/12/12 07:13:22;;;;;;;;;24.00;23.00;;;;;2.02;68.09;100346.66;5117535;27;45516;-83
2022/12/12 07:15:49;;;;;;;;;19.00;18.00;;;;;2.36;68.14;100400.56;5128905;27;45674;-83
2022/12/12 07:18:16;;;;;;;;;22.75;20.50;;;;;2.72;67.72;100463.31;5129713;27;45177;-83
2022/12/12 07:20:43;;;;;;;;;23.50;23.00;;;;;2.83;67.77;100486.50;5116632;27;45607;-83
2022/12/12 07:23:09;;;;;;;;;26.25;22.25;;;;;2.79;67.96;100492.28;5107046;27;45059;-83
2022/12/12 07:25:40;;;;;;;;;25.50;19.00;;;;;2.76;67.74;100489.53;5091753;27;45301;-83
2022/12/12 07:28:06;;;;;;;;;24.50;21.25;;;;;2.59;67.76;100472.91;5128909;27;45261;-83
2022/12/12 07:30:32;;;;;;;;;23.25;18.00;;;;;2.73;67.92;100498.81;5118793;27;45380;-82
2022/12/12 07:32:57;;;;;;;;;18.00;17.00;;;;;2.65;68.19;100479.28;5129013;27;45146;-83
2022/12/12 07:35:23;;;;;;;;;26.33;23.00;;;;;2.45;68.27;100434.84;5118876;27;45138;-82
2022/12/12 07:37:48;;;;;;;;;37.00;32.75;;;;;2.63;68.29;100458.44;5128268;27;45257;-83
2022/12/12 07:40:13;;;;;;;;;33.50;30.00;;;;;2.62;67.92;100460.94;5108978;27;46594;-83
2022/12/12 07:42:39;;;;;;;;;23.75;21.75;;;;;2.77;68.09;100493.03;5128065;27;45192;-84
2022/12/12 07:45:18;;;;;;;;;25.00;23.00;;;;;2.35;67.82;100424.72;5120992;27;45036;-85
2022/12/12 07:47:46;;;;;;;;;28.25;24.25;;;;;2.03;67.98;100387.31;5089788;27;45350;-86
2022/12/12 07:50:12;;;;;;;;;27.50;23.50;;;;;2.75;68.05;100503.28;5095106;27;47475;-80
2022/12/12 07:52:37;;;;;;;;;25.75;23.25;;;;;2.74;67.60;100503.19;5110863;27;45104;-85
2022/12/12 07:55:03;;;;;;;;;26.33;23.33;;;;;2.10;68.15;100405.84;5111958;27;45058;-88
2022/12/12 07:57:29;;;;;;;;;30.75;27.00;;;;;2.69;67.90;100505.50;5093230;27;45261;-81
2022/12/12 07:59:58;;;;;;;;;23.00;22.00;;;;;2.49;68.11;100483.53;5111000;27;45095;-81
2022/12/12 08:02:29;;;;;;;;;16.75;16.75;;;;;2.42;68.29;100476.19;5113980;27;45501;-80
2022/12/12 08:05:02;;;;;;;;;27.25;20.50;;;;;2.56;67.69;100511.66;5129095;27;45119;-81
2022/12/12 08:07:28;;;;;;;;;22.50;22.00;;;;;2.08;68.00;100425.59;5111819;27;44978;-81
2022/12/12 08:09:56;;;;;;;;;32.00;24.75;;;;;1.62;67.78;100356.19;5092906;27;47504;-82
2022/12/12 08:12:27;;;;;;;;;25.00;23.25;;;;;2.36;67.93;100467.97;5110262;27;45461;-81
2022/12/12 08:15:00;;;;;;;;;23.00;18.25;;;;;2.03;68.10;100418.44;5125224;27;44998;-82
2022/12/12 08:17:25;;;;;;;;;25.00;21.50;;;;;1.99;68.15;100393.13;5111957;27;45512;-83
2022/12/12 08:19:50;;;;;;;;;25.75;24.25;;;;;2.20;67.60;100434.13;5101774;27;45884;-81
2022/12/12 08:22:22;;;;;;;;;19.25;16.25;;;;;1.84;67.75;100389.56;5111067;27;45131;-81
2022/12/12 08:24:48;;;;;;;;;24.75;20.75;;;;;1.97;68.09;100423.22;5112705;27;45334;-81
2022/12/12 08:27:17;;;;;;;;;21.00;17.75;;;;;2.08;68.37;100443.75;5128458;27;45231;-82
2022/12/12 08:29:43;;;;;;;;;24.25;22.25;;;;;2.08;68.07;100433.38;5121898;27;45402;-82
2022/12/12 08:32:08;;;;;;;;;24.25;22.00;;;;;2.29;68.14;100458.03;5131889;27;45154;-79
2022/12/12 08:34:33;;;;;;;;;24.67;20.67;;;;;2.76;68.13;100543.13;5120255;27;45088;-82
2022/12/12 08:36:58;;;;;;;;;25.67;20.33;;;;;2.79;67.72;100554.56;5121540;27;44933;-82
2022/12/12 08:39:32;;;;;;;;;22.25;21.25;;;;;2.17;67.95;100433.94;5110992;27;45917;-81
2022/12/12 08:41:58;;;;;;;;;25.75;23.25;;;;;2.10;68.28;100406.75;5111081;27;45092;-83
2022/12/12 08:44:23;;;;;;;;;28.25;23.00;;;;;1.79;67.68;100346.91;5129460;27;45355;-83
2022/12/12 08:46:49;;;;;;;;;23.00;20.25;;;;;2.52;67.63;100480.25;5130536;27;45199;-81
2022/12/12 08:49:17;;;;;;;;;23.50;22.00;;;;;2.93;67.48;100552.84;5112774;27;47639;-82
2022/12/12 08:51:45;;;;;;;;;30.75;24.50;;;;;2.91;67.49;100558.75;5116422;27;45673;-83
2022/12/12 08:54:11;;;;;;;;;29.50;24.50;;;;;2.87;67.45;100556.78;5111302;27;45356;-82
2022/12/12 08:56:37;;;;;;;;;27.00;22.75;;;;;2.89;67.79;100561.25;5110007;27;45163;-81
2022/12/12 08:59:02;;;;;;;;;26.50;22.50;;;;;2.78;67.76;100525.94;5112151;27;45425;-82
2022/12/12 09:01:33;;;;;;;;;23.25;21.50;;;;;2.17;67.54;100408.00;5109857;27;45097;-81
2022/12/12 09:04:02;;;;;;;;;25.50;22.00;;;;;2.48;66.83;100473.97;5097840;27;45306;-82
2022/12/12 09:06:30;;;;;;;;;27.50;22.50;;;;;2.39;67.05;100465.59;5129305;27;45281;-82
2022/12/12 09:08:58;;;;;;;;;27.00;22.25;;;;;2.97;66.94;100560.03;5112327;27;47513;-83
2022/12/12 09:11:29;;;;;;;;;25.50;21.50;;;;;2.81;67.26;100526.16;5116542;27;45611;-82
2022/12/12 09:13:57;;;;;;;;;33.00;29.25;;;;;2.28;67.29;100412.19;5113194;27;45197;-83
2022/12/12 09:16:25;;;;;;;;;26.50;22.75;;;;;2.73;67.42;100480.66;5099321;27;45292;-82
2022/12/12 09:18:50;;;;;;;;;28.75;26.25;;;;;3.20;67.02;100540.66;5122517;27;45789;-82
2022/12/12 09:21:19;;;;;;;;;28.75;25.00;;;;;3.24;66.95;100536.53;5112624;27;45536;-82
2022/12/12 09:23:45;;;;;;;;;33.50;29.50;;;;;3.28;66.97;100549.78;5109470;27;45199;-83
2022/12/12 09:26:10;;;;;;;;;36.00;30.25;;;;;3.32;66.93;100537.91;5107334;27;45285;-82
2022/12/12 09:28:36;;;;;;;;;35.50;26.50;;;;;3.38;66.66;100547.75;5122132;27;45179;-82
2022/12/12 09:31:09;;;;;;;;;28.50;25.25;;;;;3.39;66.74;100542.63;5114766;27;45080;-82
2022/12/12 09:33:38;;;;;;;;;25.00;20.75;;;;;2.58;66.31;100398.50;5109967;27;45069;-81
2022/12/12 09:36:12;;;;;;;;;28.25;22.25;;;;;2.27;66.43;100358.53;5113595;27;45205;-82
2022/12/12 09:38:38;;;;;;;;;28.75;21.00;;;;;2.55;66.21;100412.97;5123994;27;46026;-82
2022/12/12 09:41:31;;;;;;;;;28.75;26.25;;;;;3.42;66.26;100550.63;5117899;27;45557;-82
2022/12/12 09:43:59;;;;;;;;;27.50;22.00;;;;;3.43;66.18;100552.41;5123739;27;45226;-83
2022/12/12 09:46:53;;;;;;;;;30.50;24.25;;;;;3.27;65.91;100514.25;5114106;27;45114;-82
2022/12/12 09:49:46;;;;;;;;;31.25;27.50;;;;;3.42;65.79;100541.94;5098071;27;47065;-82
2022/12/12 09:52:16;;;;;;;;;29.00;25.75;;;;;3.24;65.55;100515.75;5113936;27;45310;-82
2022/12/12 09:54:42;;;;;;;;;25.25;22.75;;;;;3.32;65.71;100540.50;5109935;27;45557;-82
2022/12/12 09:57:32;;;;;;;;;34.00;25.25;;;;;3.28;66.66;100529.03;5125456;27;45348;-82
2022/12/12 10:00:03;;;;;;;;;28.00;23.00;;;;;3.40;66.13;100533.16;5130108;27;45644;-82
2022/12/12 10:02:50;;;;;;;;;22.25;18.00;;;;;3.42;65.96;100534.16;5114332;27;45419;-82
2022/12/12 10:05:40;;;;;;;;;25.50;22.50;;;;;3.33;66.05;100521.50;5108686;27;45047;-82
2022/12/12 10:08:06;;;;;;;;;24.25;18.50;;;;;3.43;65.92;100529.03;5109789;27;45222;-82
2022/12/12 10:10:54;;;;;;;;;26.00;22.00;;;;;3.47;66.13;100515.44;5108998;27;49500;-82
2022/12/12 10:13:25;;;;;;;;;24.00;22.50;;;;;3.44;65.69;100502.25;5106997;27;45203;-82
2022/12/12 10:16:13;;;;;;;;;24.50;22.50;;;;;3.42;65.75;100493.47;5107845;27;45347;-82
2022/12/12 10:18:44;;;;;;;;;29.50;27.25;;;;;3.49;65.59;100511.19;5122970;27;45203;-82
2022/12/12 10:21:31;;;;;;;;;27.25;24.50;;;;;3.40;65.14;100497.69;5123928;27;45455;-82
2022/12/12 10:24:06;;;;;;;;;32.50;26.50;;;;;3.45;65.61;100526.50;5081721;27;45508;-82
2022/12/12 10:26:31;;;;;;;;;27.00;22.00;;;;;3.40;65.61;100522.75;5096547;27;45194;-82
2022/12/12 10:29:10;;;;;;;;;29.67;25.00;;;;;3.10;65.46;100489.88;5102544;27;45126;-82
2022/12/12 10:31:54;;;;;;;;;26.50;23.00;;;;;3.39;65.28;100539.16;5098232;27;45678;-82
2022/12/12 10:34:37;;;;;;;;;29.75;26.00;;;;;3.32;65.81;100515.41;5118017;27;44981;-82
2022/12/12 10:37:29;;;;;;;;;30.50;22.75;;;;;3.45;65.06;100519.66;5119090;27;45004;-81
2022/12/12 10:40:16;;;;;;;;;32.75;27.75;;;;;3.45;65.40;100518.72;5108651;27;45261;-82
2022/12/12 10:43:06;;;;;;;;;36.00;32.25;;;;;3.46;65.37;100524.03;5108934;27;45071;-82
2022/12/12 10:45:53;;;;;;;;;29.00;26.50;;;;;3.29;65.00;100494.44;5108375;27;45420;-82
2022/12/12 10:48:18;;;;;;;;;23.00;19.50;;;;;3.48;65.45;100519.81;5109463;27;45200;-82
2022/12/12 10:50:54;;;;;;;;;42.75;32.50;;;;;3.52;65.54;100513.09;5111407;27;45204;-82
2022/12/12 10:53:20;;;;;;;;;27.25;26.00;;;;;3.38;65.44;100457.72;5128967;27;46976;-82
2022/12/12 10:56:12;;;;;;;;;34.00;27.25;;;;;3.69;65.40;100491.56;5128337;27;45079;-82
2022/12/12 10:58:43;;;;;;;;;38.50;30.00;;;;;3.56;64.99;100438.03;5087828;27;45509;-82
2022/12/12 11:01:17;;;;;;;;;31.50;27.50;;;;;3.48;65.23;100404.59;5106521;27;45184;-82
2022/12/12 11:03:50;;;;;;;;;29.50;27.25;;;;;3.84;65.11;100436.97;5110471;27;46031;-82
2022/12/12 11:06:44;;;;;;;;;29.75;24.75;;;;;3.96;64.09;100461.06;5106717;27;45567;-82
2022/12/12 11:09:22;;;;;;;;;28.75;26.00;;;;;3.85;64.28;100450.06;5090849;27;45729;-82
2022/12/12 11:11:58;;;;;;;;;29.00;26.00;;;;;3.82;64.29;100442.09;5096323;27;45655;-82
2022/12/12 11:14:47;;;;;;;;;30.75;26.00;;;;;3.91;64.68;100435.63;5092827;27;47364;-81
2022/12/12 11:17:26;;;;;;;;;31.75;27.25;;;;;3.98;64.56;100435.16;5096874;27;45726;-82
2022/12/12 11:19:55;;;;;;;;;42.25;27.00;;;;;4.07;64.37;100431.34;5110714;27;45435;-82
2022/12/12 11:22:21;;;;;;;;;29.00;26.00;;;;;4.10;64.17;100434.13;5113957;27;45253;-81
2022/12/12 11:24:48;;;;;;;;;28.75;27.25;;;;;3.86;64.22;100392.06;5120463;27;46083;-81
2022/12/12 11:27:21;;;;;;;;;33.25;29.50;;;;;4.03;64.15;100420.69;5110535;27;45536;-82
2022/12/12 11:29:51;;;;;;;;;39.50;33.25;;;;;4.15;63.93;100442.19;5117130;27;45681;-82
2022/12/12 11:32:21;;;;;;;;;37.25;30.50;;;;;3.85;63.80;100384.19;5113016;27;45479;-82
2022/12/12 11:34:59;;;;;;;;;30.25;24.25;;;;;4.12;63.90;100429.91;5091702;27;45776;-81
2022/12/12 11:37:37;;;;;;;;;35.00;30.00;;;;;3.94;63.68;100402.91;5070865;27;45665;-81
2022/12/12 11:40:03;;;;;;;;;33.50;26.50;;;;;4.09;63.74;100440.16;5089989;27;45662;-82
2022/12/12 11:42:33;;;;;;;;;31.50;24.00;;;;;3.88;63.83;100400.84;5089377;27;45416;-82
2022/12/12 11:45:03;;;;;;;;;31.00;23.75;;;;;4.07;63.62;100439.16;5074883;27;47130;-81
2022/12/12 11:47:49;;;;;;;;;33.50;27.00;;;;;4.04;63.71;100427.69;5090148;27;45389;-81
2022/12/12 11:50:24;;;;;;;;;26.25;24.00;;;;;3.99;64.10;100410.94;5089886;27;45644;-82